createdAt,value
2019-04-28T00:01:17.724Z,92.58
2019-04-28T00:03:47.121Z,92.70
2019-04-28T00:06:16.011Z,92.79
2019-04-28T00:08:45.316Z,92.76
2019-04-28T00:11:14.096Z,92.70
2019-04-28T00:13:42.994Z,92.48
2019-04-28T00:16:11.729Z,92.40
2019-04-28T00:18:41.578Z,92.38
2019-04-28T00:21:20.872Z,92.69
2019-04-28T00:24:07.951Z,92.52
2019-04-28T00:26:57.423Z,92.55
2019-04-28T00:29:37.714Z,92.26
2019-04-28T00:31:56.841Z,91.84
2019-04-28T00:34:26.147Z,91.70
2019-04-28T00:37:06.267Z,92.05
2019-04-28T00:39:35.288Z,91.89
2019-04-28T00:42:04.594Z,91.68
2019-04-28T00:44:33.690Z,91.72
2019-04-28T00:47:02.349Z,91.94
2019-04-28T00:49:46.432Z,91.62
2019-04-28T00:52:16.099Z,91.25
2019-04-28T00:54:45.520Z,91.13
2019-04-28T00:57:14.838Z,90.98
2019-04-28T00:59:54.171Z,91.14
2019-04-28T01:02:22.530Z,91.49
2019-04-28T01:04:51.559Z,91.60
2019-04-28T01:07:21.314Z,91.97
2019-04-28T01:09:51.664Z,91.68
2019-04-28T01:12:21.444Z,91.27
2019-04-28T01:14:52.266Z,91.25
2019-04-28T01:17:26.226Z,91.33
2019-04-28T01:19:56.771Z,91.79
2019-04-28T01:22:26.177Z,91.58
2019-04-28T01:24:55.072Z,91.53
2019-04-28T01:27:50.577Z,91.74
2019-04-28T01:30:54.412Z,92.09
2019-04-28T01:33:35.055Z,92.21
2019-04-28T01:36:04.161Z,91.97
2019-04-28T01:38:33.207Z,91.71
2019-04-28T01:41:01.840Z,91.55
2019-04-28T01:43:31.250Z,91.90
2019-04-28T01:46:00.336Z,91.78
2019-04-28T01:48:29.860Z,91.25
2019-04-28T01:50:59.850Z,90.92
2019-04-28T01:53:30.857Z,90.26
2019-04-28T01:55:59.798Z,90.05
2019-04-28T01:58:29.675Z,90.21
2019-04-28T02:00:59.569Z,90.57
2019-04-28T02:03:30.603Z,90.28
2019-04-28T02:06:00.199Z,90.74
2019-04-28T02:08:30.198Z,91.06
2019-04-28T02:11:00.103Z,91.06
2019-04-28T02:13:29.869Z,90.65
2019-04-28T02:16:00.039Z,90.41
2019-04-28T02:18:30.043Z,90.32
2019-04-28T02:21:06.291Z,90.14
2019-04-28T02:23:36.341Z,89.48
2019-04-28T02:26:05.228Z,89.21
2019-04-28T02:28:33.922Z,89.39
2019-04-28T02:31:03.214Z,89.50
2019-04-28T02:33:31.833Z,89.61
2019-04-28T02:36:01.597Z,89.81
2019-04-28T02:38:31.382Z,89.61
2019-04-28T02:41:01.237Z,89.60
2019-04-28T02:43:30.875Z,89.85
2019-04-28T02:46:00.668Z,90.03
2019-04-28T02:48:30.966Z,90.35
2019-04-28T02:51:05.788Z,90.40
2019-04-28T02:53:37.574Z,90.99
2019-04-28T02:56:06.443Z,91.29
2019-04-28T02:58:35.356Z,91.54
2019-04-28T03:01:12.846Z,91.50
2019-04-28T03:03:35.494Z,91.67
2019-04-28T03:06:04.279Z,91.46
2019-04-28T03:08:33.177Z,92.14
2019-04-28T03:11:02.222Z,92.27
2019-04-28T03:13:31.323Z,92.43
2019-04-28T03:16:01.745Z,92.43
2019-04-28T03:18:31.585Z,92.44
2019-04-28T03:21:01.669Z,92.30
2019-04-28T03:23:31.550Z,92.58
2019-04-28T03:26:14.740Z,92.43
2019-04-28T03:28:50.697Z,92.11
2019-04-28T03:32:07.207Z,92.15
2019-04-28T03:34:04.002Z,92.22
2019-04-28T03:36:33.467Z,92.14
2019-04-28T03:39:04.241Z,91.55
2019-04-28T03:41:33.282Z,91.76
2019-04-28T03:44:02.018Z,92.13
2019-04-28T03:46:32.422Z,92.10
2019-04-28T03:49:01.295Z,91.81
2019-04-28T03:51:30.993Z,92.07
2019-04-28T03:54:02.928Z,91.95
2019-04-28T03:56:31.155Z,91.67
2019-04-28T03:59:00.480Z,91.43
2019-04-28T04:01:30.559Z,91.60
2019-04-28T04:04:03.081Z,91.41
2019-04-28T04:06:31.122Z,91.49
2019-04-28T04:09:00.467Z,91.61
2019-04-28T04:11:43.543Z,91.66
2019-04-28T04:14:43.844Z,91.42
2019-04-28T04:17:17.412Z,91.13
2019-04-28T04:19:46.487Z,91.05
2019-04-28T04:22:15.477Z,91.74
2019-04-28T04:24:44.672Z,91.39
2019-04-28T04:27:13.317Z,91.15
2019-04-28T04:29:43.668Z,91.10
2019-04-28T04:32:22.851Z,92.10
2019-04-28T04:34:43.897Z,92.30
2019-04-28T04:37:12.873Z,92.29
2019-04-28T04:39:41.703Z,92.07
2019-04-28T04:42:10.701Z,92.08
2019-04-28T04:44:41.483Z,91.79
2019-04-28T04:47:10.895Z,92.10
2019-04-28T04:49:40.548Z,91.87
2019-04-28T04:52:10.471Z,92.05
2019-04-28T04:54:40.098Z,91.73
2019-04-28T04:57:11.021Z,92.10
2019-04-28T04:59:40.328Z,92.47
2019-04-28T05:02:33.117Z,92.34
2019-04-28T05:05:27.857Z,92.34
2019-04-28T05:07:56.867Z,92.22
2019-04-28T05:10:25.847Z,92.83
2019-04-28T05:12:55.149Z,92.77
2019-04-28T05:15:24.042Z,93.22
2019-04-28T05:17:52.927Z,92.51
2019-04-28T05:20:21.942Z,92.20
2019-04-28T05:22:57.753Z,91.47
2019-04-28T05:25:34.657Z,91.59
2019-04-28T05:28:03.547Z,91.37
2019-04-28T05:30:34.913Z,91.27
2019-04-28T05:33:03.175Z,91.31
2019-04-28T05:35:35.551Z,90.70
2019-04-28T05:38:03.312Z,89.03
2019-04-28T05:40:32.205Z,88.75
2019-04-28T05:43:01.376Z,87.80
2019-04-28T05:45:32.163Z,87.71
2019-04-28T05:48:01.765Z,87.82
2019-04-28T05:50:35.850Z,87.56
2019-04-28T05:53:32.489Z,87.60
2019-04-28T05:56:15.030Z,87.62
2019-04-28T05:58:53.176Z,87.72
2019-04-28T06:01:40.618Z,87.26
2019-04-28T06:04:11.104Z,87.36
2019-04-28T06:06:41.906Z,86.93
2019-04-28T06:09:16.331Z,86.29
2019-04-28T06:11:45.329Z,86.89
2019-04-28T06:14:13.950Z,87.35
2019-04-28T06:16:42.903Z,87.76
2019-04-28T06:19:11.815Z,87.83
2019-04-28T06:21:41.093Z,88.29
2019-04-28T06:24:09.751Z,87.46
2019-04-28T06:26:38.776Z,87.46
2019-04-28T06:29:07.664Z,87.20
2019-04-28T06:31:36.672Z,87.03
2019-04-28T06:34:05.363Z,87.20
2019-04-28T06:36:33.985Z,87.14
2019-04-28T06:39:04.258Z,85.83
2019-04-28T06:41:33.144Z,85.75
2019-04-28T06:44:02.449Z,86.98
2019-04-28T06:46:31.338Z,86.67
2019-04-28T06:49:00.227Z,87.49
2019-04-28T06:51:29.119Z,86.77
2019-04-28T06:53:58.031Z,87.01
2019-04-28T06:56:27.310Z,86.50
2019-04-28T06:58:59.339Z,86.62
2019-04-28T07:01:26.939Z,86.98
2019-04-28T07:03:56.137Z,85.90
2019-04-28T07:06:25.022Z,86.93
2019-04-28T07:08:54.318Z,86.49
2019-04-28T07:11:23.034Z,86.90
2019-04-28T07:13:51.798Z,85.99
2019-04-28T07:16:20.618Z,86.20
2019-04-28T07:18:49.585Z,85.81
2019-04-28T07:21:32.795Z,85.65
2019-04-28T07:24:01.932Z,84.57
2019-04-28T07:26:30.576Z,84.20
2019-04-28T07:28:59.793Z,84.09
2019-04-28T07:31:28.437Z,85.38
2019-04-28T07:33:57.483Z,84.50
2019-04-28T07:36:26.796Z,84.76
2019-04-28T07:38:55.772Z,83.30
2019-04-28T07:41:24.666Z,83.16
2019-04-28T07:43:53.763Z,83.17
2019-04-28T07:46:22.955Z,82.88
2019-04-28T07:48:52.520Z,82.66
2019-04-28T07:51:23.113Z,82.60
2019-04-28T07:53:56.287Z,82.63
2019-04-28T07:56:25.729Z,82.66
2019-04-28T07:58:54.361Z,82.85
2019-04-28T08:01:23.471Z,83.27
2019-04-28T08:03:52.083Z,83.26
2019-04-28T08:06:20.712Z,83.45
2019-04-28T08:08:49.945Z,82.48
2019-04-28T08:11:18.830Z,81.30
2019-04-28T08:13:47.463Z,81.02
2019-04-28T08:16:16.374Z,79.72
2019-04-28T08:18:45.302Z,79.93
2019-04-28T08:21:14.195Z,79.05
2019-04-28T08:23:47.406Z,80.42
2019-04-28T08:26:13.717Z,80.00
2019-04-28T08:28:42.714Z,81.75
2019-04-28T08:31:13.371Z,81.55
2019-04-28T08:34:01.375Z,81.93
2019-04-28T08:36:19.826Z,80.23
2019-04-28T08:38:48.721Z,82.90
2019-04-28T08:41:17.733Z,81.06
2019-04-28T08:43:46.439Z,80.46
2019-04-28T08:46:15.392Z,82.46
2019-04-28T08:48:44.055Z,82.16
2019-04-28T08:51:13.000Z,82.55
2019-04-28T08:53:41.862Z,82.47
2019-04-28T08:56:10.854Z,81.41
2019-04-28T08:58:39.748Z,81.53
2019-04-28T09:01:08.740Z,83.02
2019-04-28T09:03:38.042Z,83.32
2019-04-28T09:06:06.747Z,83.09
2019-04-28T09:08:35.682Z,81.57
2019-04-28T09:11:04.723Z,79.83
2019-04-28T09:13:33.716Z,79.44
2019-04-28T09:16:02.914Z,80.40
2019-04-28T09:18:31.639Z,81.82
2019-04-28T09:21:00.905Z,80.62
2019-04-28T09:23:30.199Z,80.63
2019-04-28T09:25:59.136Z,81.73
2019-04-28T09:28:28.188Z,79.83
2019-04-28T09:30:56.901Z,80.51
2019-04-28T09:33:25.867Z,80.09
2019-04-28T09:35:55.064Z,80.63
2019-04-28T09:38:23.686Z,79.06
2019-04-28T09:40:52.642Z,79.99
2019-04-28T09:43:29.229Z,79.23
2019-04-28T09:46:03.428Z,77.67
2019-04-28T09:48:32.317Z,77.76
2019-04-28T09:51:00.953Z,78.17
2019-04-28T09:53:29.897Z,77.36
2019-04-28T09:55:58.511Z,78.57
2019-04-28T09:58:27.787Z,77.84
2019-04-28T10:00:56.773Z,77.37
2019-04-28T10:03:25.739Z,75.85
2019-04-28T10:05:54.662Z,74.59
2019-04-28T10:08:23.302Z,75.71
2019-04-28T10:10:52.220Z,75.55
2019-04-28T10:13:21.131Z,75.27
2019-04-28T10:15:50.121Z,74.70
2019-04-28T10:18:19.039Z,75.50
2019-04-28T10:20:48.007Z,76.50
2019-04-28T10:23:17.314Z,74.93
2019-04-28T10:25:46.330Z,73.83
2019-04-28T10:28:15.873Z,75.17
2019-04-28T10:30:44.905Z,75.48
2019-04-28T10:33:13.567Z,74.84
2019-04-28T10:35:42.584Z,74.16
2019-04-28T10:38:11.498Z,72.99
2019-04-28T10:41:05.267Z,73.62
2019-04-28T10:43:34.556Z,72.96
2019-04-28T10:46:04.284Z,74.07
2019-04-28T10:48:33.277Z,73.23
2019-04-28T10:51:01.987Z,72.10
2019-04-28T10:53:30.937Z,71.81
2019-04-28T10:55:59.663Z,69.06
2019-04-28T10:58:28.310Z,67.73
2019-04-28T11:00:57.507Z,68.01
2019-04-28T11:03:26.396Z,66.87
2019-04-28T11:05:55.603Z,68.60
2019-04-28T11:08:37.301Z,68.32
2019-04-28T11:11:22.869Z,69.82
2019-04-28T11:13:51.871Z,68.70
2019-04-28T11:16:24.443Z,69.14
2019-04-28T11:18:53.747Z,70.80
2019-04-28T11:21:22.738Z,72.69
2019-04-28T11:23:52.346Z,71.94
2019-04-28T11:26:21.074Z,71.98
2019-04-28T11:28:50.032Z,71.52
2019-04-28T11:31:18.646Z,72.92
2019-04-28T11:33:55.635Z,75.02
2019-04-28T11:36:24.326Z,74.63
2019-04-28T11:38:53.594Z,75.04
2019-04-28T11:41:22.640Z,74.95
2019-04-28T11:43:51.565Z,73.87
2019-04-28T11:46:22.110Z,73.80
2019-04-28T11:48:51.092Z,74.42
2019-04-28T11:51:20.286Z,74.01
2019-04-28T11:53:49.179Z,74.68
2019-04-28T11:56:18.382Z,74.59
2019-04-28T11:58:46.990Z,74.94
2019-04-28T12:01:16.390Z,75.07
2019-04-28T12:03:45.666Z,75.60
2019-04-28T12:06:14.971Z,75.97
2019-04-28T12:08:44.164Z,76.71
2019-04-28T12:11:23.059Z,77.42
2019-04-28T12:14:23.115Z,77.62
2019-04-28T12:17:18.303Z,77.42
2019-04-28T12:19:52.978Z,77.06
2019-04-28T12:22:21.947Z,76.39
2019-04-28T12:24:50.839Z,76.68
2019-04-28T12:27:19.832Z,76.54
2019-04-28T12:29:49.021Z,76.13
2019-04-28T12:32:17.920Z,75.50
2019-04-28T12:34:46.897Z,75.59
2019-04-28T12:37:16.311Z,76.40
2019-04-28T12:39:45.302Z,76.44
2019-04-28T12:42:14.734Z,77.46
2019-04-28T12:44:43.449Z,77.25
2019-04-28T12:47:12.359Z,77.32
2019-04-28T12:49:53.237Z,78.34
2019-04-28T12:52:23.944Z,77.98
2019-04-28T12:54:53.427Z,78.62
2019-04-28T12:57:22.309Z,80.25
2019-04-28T12:59:56.420Z,79.13
2019-04-28T13:02:40.151Z,79.66
2019-04-28T13:05:12.835Z,79.52
2019-04-28T13:07:43.190Z,80.95
2019-04-28T13:10:12.153Z,80.07
2019-04-28T13:12:40.973Z,79.72
2019-04-28T13:15:10.046Z,80.11
2019-04-28T13:17:39.052Z,80.00
2019-04-28T13:20:08.237Z,79.33
2019-04-28T13:22:37.673Z,79.61
2019-04-28T13:25:07.203Z,79.65
2019-04-28T13:27:35.932Z,81.38
2019-04-28T13:30:05.451Z,80.46
2019-04-28T13:32:35.767Z,79.69
2019-04-28T13:35:04.630Z,79.75
2019-04-28T13:37:36.136Z,79.04
2019-04-28T13:40:11.339Z,78.88
2019-04-28T13:42:40.278Z,78.19
2019-04-28T13:45:14.558Z,77.56
2019-04-28T13:47:43.579Z,77.64
2019-04-28T13:50:17.250Z,78.22
2019-04-28T13:52:46.237Z,79.53
2019-04-28T13:55:33.678Z,79.14
2019-04-28T13:58:03.391Z,79.98
2019-04-28T14:00:41.665Z,79.07
2019-04-28T14:03:22.642Z,79.02
2019-04-28T14:05:56.384Z,78.15
2019-04-28T14:08:25.254Z,78.51
2019-04-28T14:10:54.210Z,77.68
2019-04-28T14:13:22.792Z,77.89
2019-04-28T14:15:51.526Z,78.16
2019-04-28T14:18:20.737Z,78.69
2019-04-28T14:20:49.423Z,79.03
2019-04-28T14:23:18.035Z,79.01
2019-04-28T14:25:46.674Z,78.98
2019-04-28T14:28:16.203Z,79.90
2019-04-28T14:30:45.173Z,80.46
2019-04-28T14:33:16.635Z,80.03
2019-04-28T14:35:45.119Z,79.05
2019-04-28T14:38:13.895Z,78.57
2019-04-28T14:40:43.103Z,77.37
2019-04-28T14:43:12.086Z,76.97
2019-04-28T14:45:40.717Z,76.32
2019-04-28T14:48:09.721Z,74.85
2019-04-28T14:50:38.939Z,74.97
2019-04-28T14:53:08.823Z,75.76
2019-04-28T14:55:37.780Z,75.44
2019-04-28T14:58:06.774Z,75.63
2019-04-28T15:00:40.610Z,75.45
2019-04-28T15:03:11.746Z,75.89
2019-04-28T15:05:53.496Z,75.52
2019-04-28T15:08:44.406Z,76.11
2019-04-28T15:11:32.474Z,75.81
2019-04-28T15:14:01.470Z,75.15
2019-04-28T15:16:30.334Z,74.79
2019-04-28T15:18:59.545Z,75.89
2019-04-28T15:21:28.268Z,77.43
2019-04-28T15:23:56.928Z,77.61
2019-04-28T15:26:26.244Z,78.35
2019-04-28T15:28:54.888Z,78.49
2019-04-28T15:31:24.105Z,77.76
2019-04-28T15:33:53.142Z,78.88
2019-04-28T15:36:22.399Z,78.27
2019-04-28T15:38:51.697Z,77.18
2019-04-28T15:41:22.099Z,76.82
2019-04-28T15:43:51.263Z,77.22
2019-04-28T15:46:20.221Z,76.92
2019-04-28T15:48:48.827Z,76.88
2019-04-28T15:51:17.805Z,77.22
2019-04-28T15:53:49.251Z,77.26
2019-04-28T15:56:29.680Z,77.94
2019-04-28T15:58:58.609Z,78.53
2019-04-28T16:01:27.802Z,79.44
2019-04-28T16:03:56.453Z,79.75
2019-04-28T16:06:25.376Z,80.16
2019-04-28T16:08:54.263Z,79.91
2019-04-28T16:11:22.992Z,80.77
2019-04-28T16:13:51.927Z,80.41
2019-04-28T16:16:20.528Z,80.92
2019-04-28T16:18:49.527Z,80.12
2019-04-28T16:21:18.246Z,80.11
2019-04-28T16:23:47.239Z,80.53
2019-04-28T16:26:16.202Z,80.96
2019-04-28T16:28:45.196Z,81.21
2019-04-28T16:31:14.748Z,80.78
2019-04-28T16:33:43.717Z,80.83
2019-04-28T16:36:12.999Z,81.03
2019-04-28T16:38:41.960Z,80.65
2019-04-28T16:41:10.611Z,80.79
2019-04-28T16:43:41.006Z,80.80
2019-04-28T16:46:09.994Z,80.70
2019-04-28T16:48:39.288Z,80.95
2019-04-28T16:51:07.916Z,81.38
2019-04-28T16:53:37.177Z,80.61
2019-04-28T16:56:20.715Z,80.48
2019-04-28T16:59:13.981Z,80.57
2019-04-28T17:01:58.494Z,81.24
2019-04-28T17:04:27.220Z,80.82
2019-04-28T17:06:55.822Z,80.56
2019-04-28T17:09:24.898Z,80.59
2019-04-28T17:11:53.896Z,80.31
2019-04-28T17:14:22.606Z,80.81
2019-04-28T17:16:51.339Z,80.74
2019-04-28T17:19:19.966Z,80.70
2019-04-28T17:21:49.259Z,80.87
2019-04-28T17:24:18.256Z,81.09
2019-04-28T17:26:47.297Z,81.24
2019-04-28T17:29:16.013Z,81.66
2019-04-28T17:31:44.922Z,81.03
2019-04-28T17:34:13.813Z,81.05
2019-04-28T17:36:42.684Z,80.44
2019-04-28T17:39:16.556Z,80.85
2019-04-28T17:41:45.613Z,80.92
2019-04-28T17:44:17.117Z,80.66
2019-04-28T17:46:45.641Z,80.67
2019-04-28T17:49:14.635Z,80.69
2019-04-28T17:51:43.937Z,81.15
2019-04-28T17:54:12.825Z,81.17
2019-04-28T17:56:41.546Z,81.25
2019-04-28T17:59:11.123Z,80.97
2019-04-28T18:02:01.997Z,81.00
2019-04-28T18:04:50.273Z,81.03
2019-04-28T18:07:24.285Z,81.20
2019-04-28T18:09:52.994Z,81.48
2019-04-28T18:12:21.790Z,81.36
2019-04-28T18:14:52.337Z,81.63
2019-04-28T18:17:39.101Z,81.62
2019-04-28T18:20:08.606Z,82.33
2019-04-28T18:22:37.598Z,82.70
2019-04-28T18:25:07.112Z,82.07
2019-04-28T18:27:36.494Z,81.69
2019-04-28T18:30:06.019Z,81.89
2019-04-28T18:33:09.425Z,82.11
2019-04-28T18:35:42.610Z,82.08
2019-04-28T18:38:19.711Z,82.54
2019-04-28T18:41:07.640Z,82.72
2019-04-28T18:44:00.896Z,82.52
2019-04-28T18:46:30.787Z,82.41
2019-04-28T18:48:59.384Z,82.54
2019-04-28T18:51:28.707Z,83.48
2019-04-28T18:53:57.993Z,83.42
2019-04-28T18:56:26.719Z,83.54
2019-04-28T18:58:55.983Z,83.32
2019-04-28T19:01:49.097Z,82.98
2019-04-28T19:04:18.972Z,82.50
2019-04-28T19:06:47.975Z,82.87
2019-04-28T19:09:27.047Z,82.94
2019-04-28T19:12:00.995Z,82.49
2019-04-28T19:14:37.519Z,83.32
2019-04-28T19:17:15.975Z,83.56
2019-04-28T19:19:44.905Z,83.92
2019-04-28T19:22:13.757Z,83.58
2019-04-28T19:24:42.463Z,83.64
2019-04-28T19:27:11.753Z,83.76
2019-04-28T19:29:40.639Z,83.92
2019-04-28T19:32:09.536Z,84.18
2019-04-28T19:34:39.174Z,84.07
2019-04-28T19:37:08.250Z,83.84
2019-04-28T19:39:36.862Z,84.10
2019-04-28T19:42:06.139Z,84.41
2019-04-28T19:44:35.611Z,84.18
2019-04-28T19:47:04.718Z,84.77
2019-04-28T19:49:33.714Z,84.78
2019-04-28T19:52:02.377Z,84.44
2019-04-28T19:54:34.778Z,84.24
2019-04-28T19:57:25.452Z,84.19
2019-04-28T20:00:12.288Z,84.07
2019-04-28T20:02:41.100Z,84.47
2019-04-28T20:05:10.170Z,84.56
2019-04-28T20:07:40.952Z,84.70
2019-04-28T20:10:09.489Z,84.71
2019-04-28T20:12:38.688Z,84.39
2019-04-28T20:15:08.195Z,84.38
2019-04-28T20:17:36.825Z,84.59
2019-04-28T20:20:05.950Z,85.22
2019-04-28T20:22:34.831Z,85.37
2019-04-28T20:25:03.829Z,85.22
2019-04-28T20:27:33.105Z,85.51
2019-04-28T20:30:01.692Z,85.83
2019-04-28T20:32:32.857Z,86.16
2019-04-28T20:35:01.792Z,85.96
2019-04-28T20:37:38.722Z,85.71
2019-04-28T20:40:12.368Z,86.72
2019-04-28T20:43:03.233Z,86.61
2019-04-28T20:45:32.474Z,86.49
2019-04-28T20:48:01.105Z,86.19
2019-04-28T20:50:30.055Z,86.34
2019-04-28T20:52:58.965Z,86.08
2019-04-28T20:55:27.988Z,86.06
2019-04-28T20:57:56.629Z,86.41
2019-04-28T21:00:25.618Z,86.31
2019-04-28T21:02:54.238Z,85.72
2019-04-28T21:05:23.217Z,86.11
2019-04-28T21:07:51.869Z,85.75
2019-04-28T21:10:20.769Z,86.05
2019-04-28T21:12:49.679Z,86.62
2019-04-28T21:15:18.975Z,86.77
2019-04-28T21:17:47.599Z,86.73
2019-04-28T21:20:16.530Z,86.66
2019-04-28T21:22:45.149Z,86.80
2019-04-28T21:25:14.223Z,87.13
2019-04-28T21:27:43.253Z,86.88
2019-04-28T21:30:12.825Z,86.95
2019-04-28T21:32:41.816Z,86.59
2019-04-28T21:35:10.811Z,87.10
2019-04-28T21:37:39.451Z,87.64
2019-04-28T21:40:09.517Z,87.41
2019-04-28T21:43:12.511Z,87.40
2019-04-28T21:45:57.477Z,87.09
2019-04-28T21:48:43.752Z,87.74
2019-04-28T21:51:12.671Z,87.62
2019-04-28T21:53:41.657Z,87.36
2019-04-28T21:56:10.344Z,87.36
2019-04-28T21:58:38.923Z,87.28
2019-04-28T22:01:09.257Z,87.25
2019-04-28T22:03:38.259Z,87.26
2019-04-28T22:06:06.944Z,87.24
2019-04-28T22:08:38.898Z,87.15
2019-04-28T22:11:07.896Z,87.07
2019-04-28T22:13:36.885Z,87.32
2019-04-28T22:16:05.969Z,87.02
2019-04-28T22:18:34.872Z,87.24
2019-04-28T22:21:03.498Z,87.42
2019-04-28T22:23:38.920Z,86.80
2019-04-28T22:26:09.414Z,86.83
2019-04-28T22:28:38.015Z,87.03
2019-04-28T22:31:07.008Z,86.93
2019-04-28T22:33:35.899Z,87.50
2019-04-28T22:36:04.905Z,87.61
2019-04-28T22:38:33.523Z,87.27
2019-04-28T22:41:02.780Z,87.54
2019-04-28T22:43:31.672Z,87.92
2019-04-28T22:46:00.598Z,87.94
2019-04-28T22:48:29.453Z,87.64
2019-04-28T22:50:58.449Z,87.43
2019-04-28T22:53:33.492Z,87.56
2019-04-28T22:56:27.975Z,87.79
2019-04-28T22:59:04.494Z,88.14
2019-04-28T23:01:36.866Z,87.93
2019-04-28T23:04:28.650Z,88.05
2019-04-28T23:06:57.841Z,88.32
2019-04-28T23:09:26.741Z,87.90
2019-04-28T23:11:55.631Z,88.53
2019-04-28T23:14:24.829Z,88.45
2019-04-28T23:16:53.740Z,88.85
2019-04-28T23:19:25.122Z,88.96
2019-04-28T23:22:06.106Z,89.10
2019-04-28T23:24:35.338Z,89.48
2019-04-28T23:27:04.452Z,89.38
2019-04-28T23:29:33.351Z,89.37
2019-04-28T23:32:02.331Z,89.29
2019-04-28T23:34:31.522Z,89.24
2019-04-28T23:37:00.517Z,89.63
2019-04-28T23:39:29.511Z,89.73
2019-04-28T23:42:08.809Z,89.82
2019-04-28T23:44:38.049Z,89.94
2019-04-28T23:47:07.714Z,90.23
2019-04-28T23:49:36.949Z,90.04
2019-04-28T23:52:31.136Z,90.12
2019-04-28T23:55:02.177Z,90.13
2019-04-28T23:57:31.478Z,90.33
